createdAt,value
2023-04-07T00:01:12.658Z,68.69
2023-04-07T00:03:07.917Z,69.04
2023-04-07T00:05:03.141Z,69.18
2023-04-07T00:06:56.320Z,69.50
2023-04-07T00:08:49.368Z,69.51
2023-04-07T00:10:42.315Z,69.76
2023-04-07T00:12:36.083Z,69.94
2023-04-07T00:14:29.340Z,70.39
2023-04-07T00:16:23.172Z,70.27
2023-04-07T00:18:16.055Z,70.09
2023-04-07T00:20:09.209Z,70.59
2023-04-07T00:22:02.070Z,70.82
2023-04-07T00:23:55.270Z,70.85
2023-04-07T00:25:49.692Z,71.02
2023-04-07T00:27:42.544Z,71.49
2023-04-07T00:29:35.384Z,71.78
2023-04-07T00:31:28.262Z,72.32
2023-04-07T00:33:21.255Z,72.73
2023-04-07T00:35:14.741Z,72.76
2023-04-07T00:37:07.566Z,72.45
2023-04-07T00:39:00.440Z,73.10
2023-04-07T00:40:59.866Z,73.58
2023-04-07T00:42:53.185Z,73.79
2023-04-07T00:44:46.236Z,74.40
2023-04-07T00:46:40.000Z,74.03
2023-04-07T00:48:33.158Z,74.67
2023-04-07T00:50:26.208Z,74.50
2023-04-07T00:52:26.940Z,74.88
2023-04-07T00:54:19.784Z,75.00
2023-04-07T00:56:13.351Z,74.79
2023-04-07T00:58:06.606Z,75.31
2023-04-07T00:59:59.451Z,75.26
2023-04-07T01:02:04.604Z,75.22
2023-04-07T01:04:33.206Z,75.57
2023-04-07T01:06:31.585Z,76.35
2023-04-07T01:08:31.568Z,76.23
2023-04-07T01:10:32.093Z,76.32
2023-04-07T01:12:46.944Z,76.47
2023-04-07T01:14:46.333Z,76.56
2023-04-07T01:16:57.982Z,76.73
2023-04-07T01:18:54.288Z,76.93
2023-04-07T01:20:51.629Z,77.39
2023-04-07T01:22:47.742Z,77.44
2023-04-07T01:25:17.956Z,77.59
2023-04-07T01:27:21.953Z,78.41
2023-04-07T01:29:29.134Z,78.01
2023-04-07T01:31:23.556Z,78.37
2023-04-07T01:33:18.103Z,78.56
2023-04-07T01:35:13.620Z,78.83
2023-04-07T01:37:07.757Z,78.69
2023-04-07T01:39:01.967Z,78.49
2023-04-07T01:40:57.166Z,79.01
2023-04-07T01:42:51.650Z,79.44
2023-04-07T01:44:46.213Z,79.63
2023-04-07T01:46:39.109Z,79.47
2023-04-07T01:48:33.366Z,79.60
2023-04-07T01:50:27.449Z,80.04
2023-04-07T01:52:21.632Z,79.98
2023-04-07T01:54:14.978Z,80.27
2023-04-07T01:56:08.132Z,80.30
2023-04-07T01:58:06.725Z,80.47
2023-04-07T02:00:01.012Z,80.97
2023-04-07T02:02:08.767Z,81.07
2023-04-07T02:04:22.213Z,81.17
2023-04-07T02:06:19.893Z,81.25
2023-04-07T02:08:16.303Z,81.41
2023-04-07T02:10:12.743Z,81.61
2023-04-07T02:12:08.459Z,81.78
2023-04-07T02:14:04.772Z,81.75
2023-04-07T02:16:01.737Z,81.80
2023-04-07T02:17:57.147Z,82.07
2023-04-07T02:19:52.096Z,82.06
2023-04-07T02:21:46.909Z,82.27
2023-04-07T02:23:42.523Z,82.26
2023-04-07T02:25:38.351Z,82.56
2023-04-07T02:27:31.174Z,82.50
2023-04-07T02:29:24.044Z,82.57
2023-04-07T02:31:17.198Z,82.89
2023-04-07T02:33:10.126Z,82.88
2023-04-07T02:35:03.994Z,83.05
2023-04-07T02:36:56.964Z,82.97
2023-04-07T02:38:49.994Z,83.01
2023-04-07T02:40:42.950Z,83.09
2023-04-07T02:42:36.812Z,82.95
2023-04-07T02:44:29.618Z,83.37
2023-04-07T02:46:22.528Z,83.25
2023-04-07T02:48:15.551Z,83.31
2023-04-07T02:50:10.058Z,83.74
2023-04-07T02:52:02.983Z,83.66
2023-04-07T02:53:56.309Z,83.74
2023-04-07T02:55:49.497Z,83.75
2023-04-07T02:57:42.345Z,83.70
2023-04-07T02:59:50.033Z,83.84
2023-04-07T03:01:43.303Z,83.92
2023-04-07T03:03:36.619Z,84.58
2023-04-07T03:05:42.508Z,84.26
2023-04-07T03:07:36.164Z,84.39
2023-04-07T03:09:30.136Z,84.81
2023-04-07T03:11:22.892Z,84.72
2023-04-07T03:13:19.814Z,84.64
2023-04-07T03:15:13.074Z,84.66
2023-04-07T03:17:07.542Z,84.63
2023-04-07T03:19:01.192Z,84.54
2023-04-07T03:20:56.233Z,85.07
2023-04-07T03:22:49.165Z,84.97
2023-04-07T03:24:48.977Z,84.99
2023-04-07T03:26:42.134Z,85.14
2023-04-07T03:28:45.058Z,85.47
2023-04-07T03:30:40.131Z,85.32
2023-04-07T03:32:33.319Z,85.74
2023-04-07T03:34:26.414Z,85.58
2023-04-07T03:36:19.507Z,85.77
2023-04-07T03:38:12.928Z,85.68
2023-04-07T03:40:06.593Z,85.66
2023-04-07T03:42:01.163Z,85.78
2023-04-07T03:43:56.381Z,85.65
2023-04-07T03:45:49.323Z,85.81
2023-04-07T03:47:43.522Z,85.86
2023-04-07T03:49:38.613Z,85.79
2023-04-07T03:51:33.186Z,86.00
2023-04-07T03:53:28.901Z,85.98
2023-04-07T03:55:22.923Z,85.89
2023-04-07T03:57:17.256Z,86.12
2023-04-07T03:59:12.562Z,86.17
2023-04-07T04:01:13.597Z,86.08
2023-04-07T04:03:06.949Z,85.97
2023-04-07T04:05:01.152Z,86.11
2023-04-07T04:06:54.181Z,86.13
2023-04-07T04:08:51.430Z,86.10
2023-04-07T04:10:44.687Z,86.03
2023-04-07T04:12:37.942Z,86.05
2023-04-07T04:14:34.373Z,85.94
2023-04-07T04:16:27.821Z,86.07
2023-04-07T04:18:22.743Z,86.13
2023-04-07T04:20:16.803Z,86.37
2023-04-07T04:22:12.924Z,86.48
2023-04-07T04:24:13.142Z,86.49
2023-04-07T04:26:06.499Z,86.47
2023-04-07T04:27:59.756Z,86.79
2023-04-07T04:29:54.037Z,86.85
2023-04-07T04:31:54.834Z,87.07
2023-04-07T04:33:48.226Z,86.97
2023-04-07T04:35:41.377Z,86.90
2023-04-07T04:37:39.795Z,86.60
2023-04-07T04:39:35.728Z,86.76
2023-04-07T04:41:29.032Z,86.92
2023-04-07T04:43:22.091Z,86.87
2023-04-07T04:45:16.772Z,86.83
2023-04-07T04:47:12.426Z,86.98
2023-04-07T04:49:06.662Z,87.16
2023-04-07T04:51:00.634Z,87.20
2023-04-07T04:52:53.584Z,87.33
2023-04-07T04:54:48.851Z,87.13
2023-04-07T04:56:42.937Z,87.36
2023-04-07T04:58:36.833Z,87.49
2023-04-07T05:00:30.243Z,87.68
2023-04-07T05:02:26.820Z,87.58
2023-04-07T05:04:20.643Z,87.66
2023-04-07T05:06:20.297Z,87.37
2023-04-07T05:08:14.368Z,87.53
2023-04-07T05:10:08.467Z,87.54
2023-04-07T05:12:02.823Z,87.66
2023-04-07T05:13:57.619Z,87.72
2023-04-07T05:15:51.100Z,87.76
2023-04-07T05:17:50.514Z,87.73
2023-04-07T05:19:47.518Z,87.89
2023-04-07T05:21:47.124Z,87.81
2023-04-07T05:23:40.686Z,88.00
2023-04-07T05:25:34.339Z,88.06
2023-04-07T05:27:29.655Z,88.16
2023-04-07T05:29:26.005Z,88.16
2023-04-07T05:31:19.474Z,88.31
2023-04-07T05:33:13.515Z,88.34
2023-04-07T05:35:15.171Z,88.34
2023-04-07T05:37:11.803Z,88.59
2023-04-07T05:39:05.165Z,88.42
2023-04-07T05:40:58.528Z,88.58
2023-04-07T05:42:55.058Z,88.62
2023-04-07T05:44:48.306Z,88.59
2023-04-07T05:46:41.355Z,88.33
2023-04-07T05:48:36.669Z,88.38
2023-04-07T05:50:29.715Z,88.43
2023-04-07T05:52:23.584Z,88.55
2023-04-07T05:54:21.401Z,88.58
2023-04-07T05:56:15.213Z,88.34
2023-04-07T05:58:11.349Z,88.34
2023-04-07T06:00:05.648Z,88.33
2023-04-07T06:02:07.809Z,88.59
2023-04-07T06:04:03.566Z,88.67
2023-04-07T06:05:58.697Z,88.62
2023-04-07T06:07:51.943Z,88.79
2023-04-07T06:09:45.823Z,88.82
2023-04-07T06:11:38.594Z,88.75
2023-04-07T06:13:31.475Z,88.76
2023-04-07T06:15:24.388Z,88.82
2023-04-07T06:17:17.304Z,88.78
2023-04-07T06:19:12.509Z,88.95
2023-04-07T06:21:05.661Z,89.16
2023-04-07T06:22:58.814Z,89.07
2023-04-07T06:24:53.091Z,88.91
2023-04-07T06:26:46.658Z,88.99
2023-04-07T06:28:40.521Z,88.98
2023-04-07T06:30:34.563Z,89.21
2023-04-07T06:32:28.590Z,89.07
2023-04-07T06:34:23.563Z,89.16
2023-04-07T06:36:16.626Z,89.29
2023-04-07T06:38:11.627Z,89.41
2023-04-07T06:40:05.687Z,89.40
2023-04-07T06:41:58.837Z,89.42
2023-04-07T06:43:51.778Z,89.66
2023-04-07T06:45:44.758Z,89.65
2023-04-07T06:47:38.560Z,89.59
2023-04-07T06:49:31.744Z,89.59
2023-04-07T06:51:24.655Z,89.53
2023-04-07T06:53:18.074Z,89.48
2023-04-07T06:55:11.219Z,89.51
2023-04-07T06:57:04.069Z,89.52
2023-04-07T06:58:56.848Z,89.28
2023-04-07T07:00:49.752Z,89.49
2023-04-07T07:02:42.818Z,89.30
2023-04-07T07:04:36.166Z,89.31
2023-04-07T07:06:29.107Z,89.26
2023-04-07T07:08:22.878Z,89.23
2023-04-07T07:10:15.936Z,89.15
2023-04-07T07:12:08.880Z,89.38
2023-04-07T07:14:02.140Z,89.21
2023-04-07T07:15:55.866Z,89.50
2023-04-07T07:17:48.901Z,89.33
2023-04-07T07:19:41.878Z,89.38
2023-04-07T07:21:34.740Z,89.30
2023-04-07T07:23:27.588Z,89.40
2023-04-07T07:25:20.519Z,89.22
2023-04-07T07:27:13.589Z,89.23
2023-04-07T07:29:06.413Z,89.21
2023-04-07T07:30:59.292Z,89.20
2023-04-07T07:32:53.952Z,89.19
2023-04-07T07:34:46.928Z,89.23
2023-04-07T07:36:39.762Z,89.27
2023-04-07T07:38:33.355Z,89.34
2023-04-07T07:40:27.452Z,89.54
2023-04-07T07:42:20.605Z,89.44
2023-04-07T07:44:13.504Z,89.45
2023-04-07T07:46:06.522Z,89.45
2023-04-07T07:47:59.538Z,89.43
2023-04-07T07:49:52.751Z,89.57
2023-04-07T07:51:46.928Z,89.49
2023-04-07T07:53:39.893Z,89.60
2023-04-07T07:55:32.835Z,89.53
2023-04-07T07:57:26.082Z,89.67
2023-04-07T07:59:19.031Z,89.55
2023-04-07T08:01:11.883Z,89.65
2023-04-07T08:03:04.993Z,89.85
2023-04-07T08:04:58.540Z,89.69
2023-04-07T08:06:52.065Z,89.80
2023-04-07T08:08:45.010Z,89.79
2023-04-07T08:10:37.844Z,89.92
2023-04-07T08:12:30.641Z,89.97
2023-04-07T08:14:23.639Z,89.90
2023-04-07T08:16:16.663Z,90.00
2023-04-07T08:18:09.724Z,90.02
2023-04-07T08:20:03.930Z,89.96
2023-04-07T08:21:56.729Z,90.06
2023-04-07T08:23:49.748Z,90.14
2023-04-07T08:25:42.891Z,90.00
2023-04-07T08:27:35.728Z,90.13
2023-04-07T08:29:30.036Z,89.86
2023-04-07T08:31:24.526Z,90.12
2023-04-07T08:33:17.423Z,90.21
2023-04-07T08:35:11.488Z,89.84
2023-04-07T08:37:04.443Z,89.96
2023-04-07T08:38:58.671Z,89.95
2023-04-07T08:40:58.487Z,89.97
2023-04-07T08:42:52.813Z,89.87
2023-04-07T08:44:48.332Z,89.85
2023-04-07T08:46:42.381Z,89.72
2023-04-07T08:48:39.113Z,89.75
2023-04-07T08:50:33.096Z,89.90
2023-04-07T08:52:35.601Z,89.81
2023-04-07T08:54:29.236Z,89.78
2023-04-07T08:56:23.000Z,89.83
2023-04-07T08:58:16.093Z,89.93
2023-04-07T09:00:10.674Z,89.84
2023-04-07T09:02:05.620Z,89.87
2023-04-07T09:04:00.148Z,89.77
2023-04-07T09:05:53.578Z,89.82
2023-04-07T09:07:46.426Z,89.87
2023-04-07T09:09:39.480Z,90.06
2023-04-07T09:11:36.427Z,90.06
2023-04-07T09:13:29.466Z,90.12
2023-04-07T09:15:22.927Z,90.03
2023-04-07T09:17:15.844Z,89.98
2023-04-07T09:19:08.619Z,89.92
2023-04-07T09:21:03.512Z,90.05
2023-04-07T09:22:56.669Z,90.08
2023-04-07T09:24:50.969Z,90.08
2023-04-07T09:26:43.907Z,90.10
2023-04-07T09:28:44.011Z,90.26
2023-04-07T09:30:36.852Z,90.11
2023-04-07T09:32:38.842Z,89.90
2023-04-07T09:34:34.461Z,89.91
2023-04-07T09:36:29.561Z,90.11
2023-04-07T09:38:23.188Z,90.19
2023-04-07T09:40:27.325Z,90.15
2023-04-07T09:42:20.869Z,90.09
2023-04-07T09:44:14.008Z,90.09
2023-04-07T09:46:26.167Z,90.05
2023-04-07T09:48:22.016Z,89.96
2023-04-07T09:50:15.513Z,89.96
2023-04-07T09:52:08.444Z,89.86
2023-04-07T09:54:01.393Z,89.89
2023-04-07T09:56:06.910Z,90.03
2023-04-07T09:58:03.995Z,90.00
2023-04-07T10:00:00.413Z,89.96
2023-04-07T10:01:56.946Z,89.92
2023-04-07T10:03:53.009Z,90.03
2023-04-07T10:05:47.032Z,89.98
2023-04-07T10:07:42.561Z,89.81
2023-04-07T10:09:36.216Z,89.88
2023-04-07T10:11:29.054Z,89.76
2023-04-07T10:13:21.937Z,89.80
2023-04-07T10:15:16.154Z,89.87
2023-04-07T10:17:09.501Z,89.94
2023-04-07T10:19:02.845Z,89.92
2023-04-07T10:20:57.674Z,89.95
2023-04-07T10:22:53.987Z,89.91
2023-04-07T10:25:04.879Z,89.77
2023-04-07T10:27:02.543Z,89.88
2023-04-07T10:29:00.821Z,90.00
2023-04-07T10:30:53.925Z,90.14
2023-04-07T10:32:52.618Z,90.16
2023-04-07T10:34:51.410Z,90.02
2023-04-07T10:37:10.699Z,90.14
2023-04-07T10:39:09.390Z,90.35
2023-04-07T10:41:38.129Z,90.35
2023-04-07T10:43:38.106Z,90.08
2023-04-07T10:45:46.745Z,90.07
2023-04-07T10:47:58.057Z,90.02
2023-04-07T10:50:19.193Z,90.05
2023-04-07T10:52:12.146Z,89.96
2023-04-07T10:54:22.739Z,90.23
2023-04-07T10:56:16.465Z,90.09
2023-04-07T10:58:31.330Z,90.14
2023-04-07T11:00:24.480Z,90.00
2023-04-07T11:02:17.899Z,90.07
2023-04-07T11:04:11.058Z,90.07
2023-04-07T11:06:11.108Z,90.10
2023-04-07T11:08:06.715Z,90.07
2023-04-07T11:10:13.809Z,90.07
2023-04-07T11:12:07.165Z,89.97
2023-04-07T11:13:59.996Z,90.06
2023-04-07T11:15:53.401Z,89.97
2023-04-07T11:17:46.531Z,90.14
2023-04-07T11:19:53.178Z,90.12
2023-04-07T11:21:46.330Z,90.23
2023-04-07T11:23:40.299Z,90.36
2023-04-07T11:25:33.559Z,90.55
2023-04-07T11:27:27.436Z,90.44
2023-04-07T11:29:29.025Z,90.31
2023-04-07T11:31:23.715Z,90.33
2023-04-07T11:33:19.074Z,90.73
2023-04-07T11:35:12.228Z,90.55
2023-04-07T11:37:22.585Z,90.58
2023-04-07T11:39:21.576Z,90.51
2023-04-07T11:41:15.745Z,90.74
2023-04-07T11:43:20.191Z,90.60
2023-04-07T11:45:17.731Z,90.80
2023-04-07T11:47:10.725Z,90.79
2023-04-07T11:49:14.691Z,90.70
2023-04-07T11:51:16.832Z,90.86
2023-04-07T11:53:10.002Z,90.78
2023-04-07T11:55:02.945Z,90.79
2023-04-07T11:56:56.608Z,90.50
2023-04-07T11:58:54.984Z,90.35
2023-04-07T12:00:59.400Z,90.51
2023-04-07T12:02:52.769Z,90.66
2023-04-07T12:04:57.575Z,90.98
2023-04-07T12:06:51.147Z,90.60
2023-04-07T12:08:44.816Z,90.87
2023-04-07T12:10:40.520Z,91.89
2023-04-07T12:12:33.685Z,90.39
2023-04-07T12:14:29.603Z,89.95
2023-04-07T12:16:23.220Z,89.85
2023-04-07T12:18:17.838Z,89.89
2023-04-07T12:20:11.716Z,89.78
2023-04-07T12:22:04.575Z,89.63
2023-04-07T12:23:57.408Z,89.76
2023-04-07T12:25:50.571Z,89.87
2023-04-07T12:27:44.069Z,89.94
2023-04-07T12:29:37.691Z,90.04
2023-04-07T12:31:32.604Z,90.08
2023-04-07T12:33:25.743Z,90.14
2023-04-07T12:35:19.101Z,90.06
2023-04-07T12:37:11.890Z,90.32
2023-04-07T12:39:05.295Z,90.40
2023-04-07T12:41:03.712Z,90.36
2023-04-07T12:42:58.478Z,90.43
2023-04-07T12:44:51.832Z,90.46
2023-04-07T12:46:44.969Z,90.70
2023-04-07T12:48:38.163Z,90.85
2023-04-07T12:50:33.592Z,90.82
2023-04-07T12:52:28.272Z,90.66
2023-04-07T12:54:22.567Z,90.63
2023-04-07T12:56:16.786Z,90.71
2023-04-07T12:58:10.569Z,90.68
2023-04-07T13:00:06.456Z,90.66
2023-04-07T13:01:59.633Z,90.59
2023-04-07T13:03:53.650Z,90.63
2023-04-07T13:05:47.342Z,90.71
2023-04-07T13:07:40.533Z,90.84
2023-04-07T13:09:33.558Z,90.79
2023-04-07T13:11:26.627Z,90.64
2023-04-07T13:13:19.655Z,90.78
2023-04-07T13:15:12.813Z,90.78
2023-04-07T13:17:06.951Z,90.82
2023-04-07T13:19:00.460Z,90.97
2023-04-07T13:21:16.562Z,91.11
2023-04-07T13:23:09.651Z,91.00
2023-04-07T13:25:03.770Z,91.04
2023-04-07T13:26:57.838Z,91.02
2023-04-07T13:28:50.690Z,91.09
2023-04-07T13:30:43.651Z,91.17
2023-04-07T13:32:36.608Z,91.23
2023-04-07T13:34:29.632Z,91.14
2023-04-07T13:36:23.415Z,91.22
2023-04-07T13:38:16.553Z,91.25
2023-04-07T13:40:09.893Z,91.25
2023-04-07T13:42:02.861Z,91.19
2023-04-07T13:43:56.728Z,91.15
2023-04-07T13:45:49.842Z,91.14
2023-04-07T13:47:42.817Z,91.15
2023-04-07T13:49:36.495Z,91.26
2023-04-07T13:51:29.555Z,91.49
2023-04-07T13:53:23.320Z,91.36
2023-04-07T13:55:16.994Z,91.40
2023-04-07T13:57:14.746Z,91.39
2023-04-07T13:59:08.145Z,91.44
2023-04-07T14:01:01.572Z,91.53
2023-04-07T14:02:56.396Z,91.33
2023-04-07T14:04:49.498Z,91.49
2023-04-07T14:06:42.962Z,91.55
2023-04-07T14:08:36.396Z,91.64
2023-04-07T14:10:29.897Z,91.38
2023-04-07T14:12:23.752Z,91.49
2023-04-07T14:14:16.602Z,91.53
2023-04-07T14:16:09.477Z,91.48
2023-04-07T14:18:02.556Z,91.67
2023-04-07T14:19:56.056Z,91.50
2023-04-07T14:21:49.019Z,91.63
2023-04-07T14:23:42.663Z,91.80
2023-04-07T14:25:35.620Z,91.62
2023-04-07T14:27:31.365Z,91.80
2023-04-07T14:29:26.993Z,91.79
2023-04-07T14:31:19.918Z,91.74
2023-04-07T14:33:13.040Z,91.76
2023-04-07T14:35:06.705Z,91.69
2023-04-07T14:36:59.972Z,91.74
2023-04-07T14:38:54.334Z,91.64
2023-04-07T14:40:47.595Z,91.60
2023-04-07T14:42:41.774Z,91.74
2023-04-07T14:44:34.591Z,91.60
2023-04-07T14:46:27.744Z,91.64
2023-04-07T14:48:20.925Z,91.72
2023-04-07T14:50:13.800Z,91.45
2023-04-07T14:52:06.846Z,91.60
2023-04-07T14:53:59.777Z,91.55
2023-04-07T14:55:52.620Z,91.47
2023-04-07T14:57:46.902Z,91.56
2023-04-07T14:59:39.766Z,91.47
2023-04-07T15:01:32.894Z,91.41
2023-04-07T15:03:26.037Z,91.45
2023-04-07T15:05:19.312Z,91.55
2023-04-07T15:07:12.260Z,91.55
2023-04-07T15:09:05.098Z,91.75
2023-04-07T15:10:57.966Z,91.59
2023-04-07T15:12:50.802Z,91.80
2023-04-07T15:14:46.205Z,91.67
2023-04-07T15:16:39.183Z,91.55
2023-04-07T15:18:32.225Z,91.56
2023-04-07T15:20:25.476Z,91.60
2023-04-07T15:22:20.863Z,91.56
2023-04-07T15:24:15.918Z,91.71
2023-04-07T15:26:10.335Z,91.73
2023-04-07T15:28:03.407Z,91.57
2023-04-07T15:29:56.366Z,91.57
2023-04-07T15:31:49.455Z,91.47
2023-04-07T15:33:44.377Z,91.53
2023-04-07T15:35:37.449Z,91.65
2023-04-07T15:37:30.606Z,91.73
2023-04-07T15:39:24.253Z,91.78
2023-04-07T15:41:17.893Z,91.49
2023-04-07T15:43:11.478Z,91.72
2023-04-07T15:45:04.933Z,91.72
2023-04-07T15:46:57.724Z,91.70
2023-04-07T15:48:51.924Z,91.71
2023-04-07T15:50:44.810Z,91.86
2023-04-07T15:52:37.679Z,91.69
2023-04-07T15:54:31.107Z,91.62
2023-04-07T15:56:24.939Z,91.78
2023-04-07T15:58:17.850Z,91.96
2023-04-07T16:00:11.439Z,91.96
2023-04-07T16:02:07.157Z,91.93
2023-04-07T16:04:00.347Z,91.98
2023-04-07T16:05:53.920Z,91.90
2023-04-07T16:07:46.867Z,91.95
2023-04-07T16:09:39.710Z,91.95
2023-04-07T16:11:32.767Z,91.94
2023-04-07T16:13:26.532Z,91.93
2023-04-07T16:15:32.427Z,91.96
2023-04-07T16:17:29.752Z,91.88
2023-04-07T16:19:22.887Z,91.88
2023-04-07T16:21:16.040Z,92.33
2023-04-07T16:23:09.305Z,92.35
2023-04-07T16:25:02.137Z,92.05
2023-04-07T16:26:56.017Z,92.00
2023-04-07T16:28:49.370Z,91.92
2023-04-07T16:30:42.937Z,91.98
2023-04-07T16:32:36.119Z,91.93
2023-04-07T16:34:29.033Z,92.01
2023-04-07T16:36:21.877Z,91.95
2023-04-07T16:38:14.843Z,91.97
2023-04-07T16:40:09.262Z,92.02
2023-04-07T16:42:02.258Z,92.08
2023-04-07T16:43:55.076Z,92.16
2023-04-07T16:45:52.080Z,92.20
2023-04-07T16:47:45.171Z,92.21
2023-04-07T16:49:38.154Z,92.13
2023-04-07T16:51:31.931Z,92.19
2023-04-07T16:53:27.634Z,92.27
2023-04-07T16:55:20.991Z,92.32
2023-04-07T16:57:14.040Z,92.44
2023-04-07T16:59:07.402Z,92.46
2023-04-07T17:01:00.571Z,92.63
2023-04-07T17:02:53.703Z,92.61
2023-04-07T17:04:47.284Z,92.60
2023-04-07T17:06:40.108Z,92.76
2023-04-07T17:08:33.884Z,92.86
2023-04-07T17:10:27.435Z,93.07
2023-04-07T17:12:20.894Z,92.80
2023-04-07T17:14:14.051Z,92.83
2023-04-07T17:16:12.161Z,92.97
2023-04-07T17:18:05.325Z,93.18
2023-04-07T17:19:59.866Z,93.25
2023-04-07T17:21:53.017Z,93.27
2023-04-07T17:23:45.881Z,93.34
2023-04-07T17:25:38.907Z,93.55
2023-04-07T17:27:31.962Z,93.51
2023-04-07T17:29:29.181Z,93.57
2023-04-07T17:31:22.138Z,93.62
2023-04-07T17:33:15.048Z,93.76
2023-04-07T17:35:08.671Z,93.77
2023-04-07T17:37:01.642Z,93.79
2023-04-07T17:38:54.641Z,93.89
2023-04-07T17:40:47.533Z,93.77
2023-04-07T17:42:40.562Z,93.96
2023-04-07T17:44:34.264Z,93.96
2023-04-07T17:46:27.628Z,93.89
2023-04-07T17:48:24.124Z,94.00
2023-04-07T17:50:17.380Z,93.98
2023-04-07T17:52:10.455Z,94.02
2023-04-07T17:54:03.891Z,93.97
2023-04-07T17:55:56.834Z,94.08
2023-04-07T17:57:49.920Z,94.08
2023-04-07T17:59:43.390Z,94.29
2023-04-07T18:01:38.046Z,94.28
2023-04-07T18:03:32.252Z,94.41
2023-04-07T18:05:26.648Z,94.22
2023-04-07T18:07:21.289Z,94.47
2023-04-07T18:09:15.043Z,94.30
2023-04-07T18:11:08.308Z,94.40
2023-04-07T18:13:03.535Z,94.41
2023-04-07T18:14:57.833Z,94.47
2023-04-07T18:16:54.850Z,94.45
2023-04-07T18:18:49.700Z,94.47
2023-04-07T18:20:56.169Z,94.64
2023-04-07T18:22:57.368Z,94.56
2023-04-07T18:25:00.589Z,94.57
2023-04-07T18:26:59.508Z,94.62
2023-04-07T18:28:52.928Z,94.63
2023-04-07T18:30:46.560Z,94.65
2023-04-07T18:32:44.355Z,94.75
2023-04-07T18:34:41.280Z,94.64
2023-04-07T18:36:43.170Z,94.77
2023-04-07T18:38:38.247Z,94.88
2023-04-07T18:40:33.528Z,94.82
2023-04-07T18:42:26.846Z,94.78
2023-04-07T18:44:20.403Z,94.90
2023-04-07T18:46:13.777Z,94.81
2023-04-07T18:48:07.240Z,94.88
2023-04-07T18:50:01.357Z,94.82
2023-04-07T18:51:57.006Z,94.75
2023-04-07T18:53:50.791Z,94.96
2023-04-07T18:55:44.031Z,94.90
2023-04-07T18:57:39.567Z,94.99
2023-04-07T18:59:33.102Z,94.82
2023-04-07T19:01:27.445Z,94.91
2023-04-07T19:03:22.014Z,94.72
2023-04-07T19:05:15.732Z,94.57
2023-04-07T19:07:09.501Z,94.85
2023-04-07T19:09:03.985Z,94.73
2023-04-07T19:10:56.936Z,94.66
2023-04-07T19:12:49.884Z,94.76
2023-04-07T19:14:42.834Z,94.64
2023-04-07T19:16:36.201Z,94.68
2023-04-07T19:18:31.672Z,94.98
2023-04-07T19:20:24.526Z,95.43
2023-04-07T19:22:17.804Z,95.64
2023-04-07T19:24:10.854Z,95.56
2023-04-07T19:26:04.204Z,95.88
2023-04-07T19:27:58.372Z,95.82
2023-04-07T19:29:51.640Z,95.65
2023-04-07T19:31:44.763Z,95.77
2023-04-07T19:33:38.383Z,96.24
2023-04-07T19:35:33.063Z,96.92
2023-04-07T19:37:26.296Z,96.81
2023-04-07T19:39:19.553Z,96.81
2023-04-07T19:41:12.915Z,96.50
2023-04-07T19:43:05.752Z,96.70
2023-04-07T19:45:02.329Z,96.67
2023-04-07T19:46:55.644Z,96.73
2023-04-07T19:48:48.812Z,96.49
2023-04-07T19:50:43.997Z,96.25
2023-04-07T19:52:38.887Z,96.31
2023-04-07T19:54:32.252Z,96.04
2023-04-07T19:56:25.260Z,95.97
2023-04-07T19:58:19.065Z,95.98
2023-04-07T20:00:12.639Z,96.11
2023-04-07T20:02:13.865Z,95.85
2023-04-07T20:04:07.283Z,95.84
2023-04-07T20:06:00.592Z,95.93
2023-04-07T20:07:53.540Z,95.81
2023-04-07T20:09:46.837Z,95.76
2023-04-07T20:11:39.741Z,95.89
2023-04-07T20:13:35.149Z,95.91
2023-04-07T20:15:28.404Z,96.04
2023-04-07T20:17:21.253Z,96.02
2023-04-07T20:19:14.196Z,95.95
2023-04-07T20:21:07.191Z,96.00
2023-04-07T20:23:00.406Z,95.89
2023-04-07T20:24:53.347Z,95.91
2023-04-07T20:26:46.200Z,95.77
2023-04-07T20:28:39.043Z,95.71
2023-04-07T20:30:32.259Z,95.87
2023-04-07T20:32:26.605Z,95.97
2023-04-07T20:34:19.674Z,95.96
2023-04-07T20:36:12.771Z,95.78
2023-04-07T20:38:06.241Z,95.93
2023-04-07T20:39:59.145Z,96.00
2023-04-07T20:41:52.390Z,96.00
2023-04-07T20:43:45.680Z,96.39
2023-04-07T20:45:39.072Z,96.40
2023-04-07T20:47:36.934Z,96.42
2023-04-07T20:49:30.100Z,96.34
2023-04-07T20:51:23.644Z,96.61
2023-04-07T20:53:17.546Z,96.68
2023-04-07T20:55:11.682Z,96.43
2023-04-07T20:57:04.473Z,96.65
2023-04-07T20:58:58.644Z,96.51
2023-04-07T21:00:56.788Z,96.36
2023-04-07T21:02:51.957Z,96.42
2023-04-07T21:04:46.721Z,96.22
2023-04-07T21:06:40.233Z,96.31
2023-04-07T21:08:34.057Z,96.25
2023-04-07T21:10:27.289Z,96.10
2023-04-07T21:12:20.213Z,96.19
2023-04-07T21:14:13.149Z,96.10
2023-04-07T21:16:50.122Z,96.06
2023-04-07T21:19:06.426Z,96.04
2023-04-07T21:21:56.217Z,96.24
2023-04-07T21:24:11.717Z,96.44
2023-04-07T21:26:12.613Z,96.30
2023-04-07T21:28:06.933Z,96.51
2023-04-07T21:30:00.658Z,96.42
2023-04-07T21:31:55.091Z,96.66
2023-04-07T21:33:48.601Z,97.52
2023-04-07T21:35:43.167Z,97.08
2023-04-07T21:37:38.454Z,97.56
2023-04-07T21:39:35.744Z,97.52
2023-04-07T21:41:28.694Z,97.27
2023-04-07T21:43:24.509Z,97.33
2023-04-07T21:45:17.659Z,97.58
2023-04-07T21:47:10.610Z,97.56
2023-04-07T21:49:04.803Z,97.99
2023-04-07T21:50:58.461Z,98.09
2023-04-07T21:52:53.965Z,97.74
2023-04-07T21:54:48.189Z,97.76
2023-04-07T21:56:41.799Z,98.08
2023-04-07T21:58:34.849Z,98.37
2023-04-07T22:00:27.899Z,98.16
2023-04-07T22:02:20.919Z,97.78
2023-04-07T22:04:14.851Z,97.44
2023-04-07T22:06:08.615Z,97.22
2023-04-07T22:08:03.169Z,96.66
2023-04-07T22:09:57.568Z,96.41
2023-04-07T22:11:52.182Z,96.15
2023-04-07T22:13:46.223Z,95.53
2023-04-07T22:15:39.068Z,95.27
2023-04-07T22:17:32.194Z,95.31
2023-04-07T22:19:27.280Z,94.81
2023-04-07T22:21:20.165Z,94.45
2023-04-07T22:23:13.109Z,94.09
2023-04-07T22:25:07.079Z,93.42
2023-04-07T22:27:00.030Z,93.22
2023-04-07T22:28:53.079Z,92.84
2023-04-07T22:30:46.387Z,92.64
2023-04-07T22:32:39.497Z,92.55
2023-04-07T22:34:32.848Z,92.30
2023-04-07T22:36:26.506Z,92.29
2023-04-07T22:38:19.560Z,92.23
2023-04-07T22:40:12.396Z,92.10
2023-04-07T22:42:05.844Z,92.07
2023-04-07T22:43:58.813Z,91.94
2023-04-07T22:45:51.761Z,91.96
2023-04-07T22:47:44.655Z,91.85
2023-04-07T22:49:37.555Z,91.99
2023-04-07T22:51:30.709Z,91.87
2023-04-07T22:53:23.560Z,91.88
2023-04-07T22:55:16.509Z,91.85
2023-04-07T22:57:09.664Z,91.78
2023-04-07T22:59:05.792Z,91.77
2023-04-07T23:00:58.993Z,91.83
2023-04-07T23:02:52.560Z,91.80
2023-04-07T23:04:46.157Z,91.74
2023-04-07T23:06:40.751Z,91.75
2023-04-07T23:08:33.791Z,91.82
2023-04-07T23:10:26.638Z,91.73
2023-04-07T23:12:19.488Z,91.84
2023-04-07T23:14:12.535Z,91.85
2023-04-07T23:16:06.564Z,91.74
2023-04-07T23:17:59.494Z,91.86
2023-04-07T23:19:52.401Z,91.69
2023-04-07T23:21:45.253Z,91.62
2023-04-07T23:23:39.240Z,91.63
2023-04-07T23:25:32.282Z,91.58
2023-04-07T23:27:25.428Z,91.63
2023-04-07T23:29:18.482Z,91.43
2023-04-07T23:31:11.990Z,91.55
2023-04-07T23:33:05.041Z,91.44
2023-04-07T23:34:57.995Z,91.62
2023-04-07T23:36:50.991Z,91.50
2023-04-07T23:38:43.934Z,91.62
2023-04-07T23:40:37.290Z,91.56
2023-04-07T23:42:30.146Z,91.63
2023-04-07T23:44:23.083Z,91.65
2023-04-07T23:46:16.524Z,91.79
2023-04-07T23:48:09.390Z,91.72
2023-04-07T23:50:02.734Z,91.67
2023-04-07T23:51:56.021Z,91.64
2023-04-07T23:53:49.058Z,91.80
2023-04-07T23:55:41.903Z,91.94
2023-04-07T23:57:34.852Z,91.85
2023-04-07T23:59:28.004Z,91.81
